createdAt,value
2023-04-26T00:00:09.084Z,93.64
2023-04-26T00:02:37.651Z,94.11
2023-04-26T00:05:09.236Z,93.90
2023-04-26T00:07:38.139Z,93.22
2023-04-26T00:10:06.489Z,93.24
2023-04-26T00:12:34.530Z,93.99
2023-04-26T00:15:02.521Z,95.30
2023-04-26T00:17:30.390Z,94.95
2023-04-26T00:19:58.562Z,95.35
2023-04-26T00:22:27.831Z,95.43
2023-04-26T00:24:56.037Z,95.23
2023-04-26T00:27:23.855Z,95.51
2023-04-26T00:29:51.660Z,96.10
2023-04-26T00:32:19.571Z,96.05
2023-04-26T00:34:48.018Z,95.72
2023-04-26T00:37:15.767Z,95.41
2023-04-26T00:39:44.888Z,95.69
2023-04-26T00:42:12.738Z,95.56
2023-04-26T00:44:41.035Z,97.30
2023-04-26T00:47:09.477Z,96.14
2023-04-26T00:49:37.910Z,96.75
2023-04-26T00:52:06.061Z,96.30
2023-04-26T00:54:34.139Z,95.87
2023-04-26T00:57:03.725Z,96.05
2023-04-26T00:59:31.771Z,96.42
2023-04-26T01:02:00.189Z,96.94
2023-04-26T01:04:30.248Z,96.76
2023-04-26T01:06:58.441Z,96.86
2023-04-26T01:09:26.439Z,95.87
2023-04-26T01:11:56.689Z,96.78
2023-04-26T01:14:26.084Z,97.24
2023-04-26T01:16:54.436Z,97.39
2023-04-26T01:19:22.226Z,96.19
2023-04-26T01:21:50.198Z,96.46
2023-04-26T01:24:19.394Z,96.86
2023-04-26T01:26:47.277Z,96.68
2023-04-26T01:29:17.242Z,96.66
2023-04-26T01:31:45.926Z,96.69
2023-04-26T01:34:14.152Z,96.31
2023-04-26T01:36:42.409Z,96.68
2023-04-26T01:39:10.731Z,95.85
2023-04-26T01:41:39.957Z,96.00
2023-04-26T01:44:07.786Z,95.83
2023-04-26T01:46:35.733Z,95.81
2023-04-26T01:49:03.796Z,95.73
2023-04-26T01:51:32.514Z,96.17
2023-04-26T01:54:00.286Z,97.15
2023-04-26T01:56:28.144Z,96.86
2023-04-26T01:58:57.443Z,96.53
2023-04-26T02:01:25.553Z,96.37
2023-04-26T02:03:53.600Z,96.61
2023-04-26T02:06:22.248Z,96.68
2023-04-26T02:08:52.421Z,96.46
2023-04-26T02:11:20.493Z,96.69
2023-04-26T02:13:48.199Z,97.44
2023-04-26T02:16:17.700Z,96.88
2023-04-26T02:18:47.266Z,97.02
2023-04-26T02:21:15.114Z,97.24
2023-04-26T02:23:42.932Z,97.13
2023-04-26T02:26:11.714Z,97.33
2023-04-26T02:28:39.807Z,97.69
2023-04-26T02:31:07.935Z,97.75
2023-04-26T02:33:37.193Z,97.56
2023-04-26T02:36:06.035Z,97.35
2023-04-26T02:38:36.231Z,96.97
2023-04-26T02:41:05.945Z,97.49
2023-04-26T02:43:34.508Z,97.83
2023-04-26T02:46:02.801Z,97.63
2023-04-26T02:48:32.220Z,97.67
2023-04-26T02:51:01.384Z,97.50
2023-04-26T02:53:29.652Z,97.28
2023-04-26T02:55:57.530Z,98.06
2023-04-26T02:58:25.359Z,98.43
2023-04-26T03:00:54.741Z,97.99
2023-04-26T03:03:23.142Z,97.71
2023-04-26T03:05:52.117Z,97.28
2023-04-26T03:08:21.297Z,97.22
2023-04-26T03:10:50.355Z,97.07
2023-04-26T03:13:18.200Z,97.98
2023-04-26T03:15:47.097Z,97.25
2023-04-26T03:18:14.931Z,97.74
2023-04-26T03:20:43.648Z,97.80
2023-04-26T03:23:11.732Z,98.01
2023-04-26T03:25:40.933Z,98.39
2023-04-26T03:28:09.596Z,98.39
2023-04-26T03:30:37.442Z,97.49
2023-04-26T03:33:06.837Z,97.48
2023-04-26T03:35:34.820Z,97.77
2023-04-26T03:38:02.725Z,97.54
2023-04-26T03:40:30.532Z,97.53
2023-04-26T03:42:59.957Z,97.41
2023-04-26T03:45:27.842Z,97.02
2023-04-26T03:47:56.717Z,97.79
2023-04-26T03:50:24.931Z,98.08
2023-04-26T03:52:53.298Z,98.19
2023-04-26T03:55:21.331Z,98.74
2023-04-26T03:57:49.301Z,98.23
2023-04-26T04:00:18.809Z,98.86
2023-04-26T04:02:48.151Z,99.24
2023-04-26T04:05:24.399Z,99.13
2023-04-26T04:07:53.216Z,98.89
2023-04-26T04:10:23.123Z,100.00
2023-04-26T04:12:51.248Z,100.00
2023-04-26T04:15:21.617Z,99.16
2023-04-26T04:17:50.402Z,98.83
2023-04-26T04:20:18.423Z,98.66
2023-04-26T04:22:46.353Z,99.05
2023-04-26T04:25:14.683Z,98.64
2023-04-26T04:27:43.769Z,99.04
2023-04-26T04:30:12.880Z,98.59
2023-04-26T04:32:44.887Z,97.72
2023-04-26T04:35:13.734Z,96.95
2023-04-26T04:37:43.868Z,96.21
2023-04-26T04:40:13.392Z,96.21
2023-04-26T04:42:46.668Z,95.82
2023-04-26T04:45:16.364Z,95.32
2023-04-26T04:47:46.727Z,95.71
2023-04-26T04:50:15.294Z,94.34
2023-04-26T04:52:44.386Z,93.35
2023-04-26T04:55:12.824Z,92.44
2023-04-26T04:57:43.130Z,91.45
2023-04-26T05:00:12.972Z,91.64
2023-04-26T05:02:50.265Z,91.33
2023-04-26T05:05:18.306Z,92.02
2023-04-26T05:07:46.397Z,91.30
2023-04-26T05:10:15.096Z,90.57
2023-04-26T05:12:42.987Z,91.99
2023-04-26T05:15:11.744Z,92.28
2023-04-26T05:17:40.771Z,94.94
2023-04-26T05:20:20.567Z,95.12
2023-04-26T05:22:48.521Z,94.94
2023-04-26T05:25:17.099Z,94.86
2023-04-26T05:27:47.301Z,96.17
2023-04-26T05:30:28.481Z,96.06
2023-04-26T05:33:13.981Z,94.56
2023-04-26T05:35:49.813Z,93.68
2023-04-26T05:38:17.753Z,94.38
2023-04-26T05:40:45.578Z,94.86
2023-04-26T05:43:13.448Z,94.99
2023-04-26T05:45:41.997Z,94.08
2023-04-26T05:48:09.868Z,92.98
2023-04-26T05:50:39.593Z,93.38
2023-04-26T05:53:09.797Z,94.79
2023-04-26T05:55:37.843Z,93.01
2023-04-26T05:58:06.434Z,91.71
2023-04-26T06:00:34.464Z,90.56
2023-04-26T06:03:02.636Z,92.04
2023-04-26T06:05:30.986Z,89.22
2023-04-26T06:07:59.121Z,91.24
2023-04-26T06:10:28.573Z,91.40
2023-04-26T06:12:56.439Z,89.86
2023-04-26T06:15:27.772Z,88.46
2023-04-26T06:17:56.307Z,86.63
2023-04-26T06:20:24.319Z,89.01
2023-04-26T06:22:52.062Z,87.38
2023-04-26T06:25:20.379Z,87.32
2023-04-26T06:27:50.342Z,86.58
2023-04-26T06:30:18.244Z,84.11
2023-04-26T06:32:48.396Z,83.30
2023-04-26T06:35:16.427Z,83.44
2023-04-26T06:37:44.589Z,83.80
2023-04-26T06:40:15.676Z,83.41
2023-04-26T06:42:44.297Z,82.80
2023-04-26T06:45:19.719Z,82.53
2023-04-26T06:47:47.722Z,82.22
2023-04-26T06:50:15.912Z,81.74
2023-04-26T06:52:43.725Z,81.82
2023-04-26T06:55:12.080Z,81.44
2023-04-26T06:57:40.168Z,82.59
2023-04-26T07:00:10.114Z,81.69
2023-04-26T07:02:39.379Z,81.57
2023-04-26T07:05:08.369Z,83.86
2023-04-26T07:07:36.185Z,81.27
2023-04-26T07:10:04.052Z,79.38
2023-04-26T07:12:32.077Z,80.22
2023-04-26T07:15:01.323Z,78.33
2023-04-26T07:17:29.224Z,78.00
2023-04-26T07:19:58.288Z,78.82
2023-04-26T07:22:26.003Z,76.76
2023-04-26T07:24:53.979Z,75.75
2023-04-26T07:27:21.917Z,76.27
2023-04-26T07:29:49.576Z,74.98
2023-04-26T07:32:17.443Z,76.91
2023-04-26T07:34:45.200Z,76.62
2023-04-26T07:37:14.318Z,75.67
2023-04-26T07:39:42.012Z,75.52
2023-04-26T07:42:09.915Z,73.78
2023-04-26T07:44:37.741Z,71.32
2023-04-26T07:47:05.482Z,72.10
2023-04-26T07:49:33.292Z,71.00
2023-04-26T07:52:02.497Z,69.39
2023-04-26T07:54:31.792Z,70.53
2023-04-26T07:56:59.565Z,69.44
2023-04-26T07:59:27.486Z,67.90
2023-04-26T08:01:55.358Z,67.02
2023-04-26T08:04:32.556Z,66.93
2023-04-26T08:07:01.514Z,61.05
2023-04-26T08:09:30.616Z,66.99
2023-04-26T08:12:00.126Z,64.23
2023-04-26T08:14:28.724Z,62.56
2023-04-26T08:16:56.670Z,65.27
2023-04-26T08:19:26.671Z,63.91
2023-04-26T08:21:54.640Z,62.34
2023-04-26T08:24:22.498Z,63.94
2023-04-26T08:26:50.338Z,64.63
2023-04-26T08:29:20.302Z,60.79
2023-04-26T08:31:48.102Z,60.84
2023-04-26T08:34:15.939Z,59.23
2023-04-26T08:36:44.005Z,59.90
2023-04-26T08:39:12.428Z,61.47
2023-04-26T08:41:45.080Z,65.47
2023-04-26T08:44:13.142Z,63.96
2023-04-26T08:46:51.640Z,63.40
2023-04-26T08:49:28.334Z,60.97
2023-04-26T08:51:57.849Z,55.14
2023-04-26T08:54:27.080Z,58.78
2023-04-26T08:56:59.935Z,57.92
2023-04-26T08:59:27.938Z,57.02
2023-04-26T09:01:58.096Z,62.87
2023-04-26T09:04:26.253Z,54.00
2023-04-26T09:06:59.584Z,56.69
2023-04-26T09:09:29.767Z,57.14
2023-04-26T09:11:58.285Z,61.34
2023-04-26T09:14:27.451Z,60.98
2023-04-26T09:16:57.612Z,62.76
2023-04-26T09:19:36.870Z,59.13
2023-04-26T09:22:06.305Z,62.30
2023-04-26T09:24:49.073Z,59.39
2023-04-26T09:27:17.456Z,60.52
2023-04-26T09:29:59.263Z,59.99
2023-04-26T09:32:29.311Z,56.93
2023-04-26T09:34:57.072Z,56.18
2023-04-26T09:37:24.969Z,57.10
2023-04-26T09:39:53.278Z,56.75
2023-04-26T09:42:21.265Z,55.29
2023-04-26T09:44:49.196Z,54.84
2023-04-26T09:47:17.300Z,54.80
2023-04-26T09:49:48.887Z,56.39
2023-04-26T09:52:17.875Z,58.85
2023-04-26T09:54:47.724Z,54.94
2023-04-26T09:57:16.687Z,51.90
2023-04-26T09:59:46.219Z,50.91
2023-04-26T10:02:19.381Z,51.78
2023-04-26T10:04:50.558Z,51.84
2023-04-26T10:07:20.402Z,51.81
2023-04-26T10:09:48.920Z,52.05
2023-04-26T10:12:18.138Z,51.86
2023-04-26T10:14:47.602Z,49.44
2023-04-26T10:17:15.860Z,49.84
2023-04-26T10:19:46.425Z,50.35
2023-04-26T10:22:20.961Z,51.56
2023-04-26T10:24:50.024Z,51.67
2023-04-26T10:27:17.968Z,50.77
2023-04-26T10:30:09.193Z,50.25
2023-04-26T10:33:22.150Z,49.66
2023-04-26T10:36:05.307Z,49.33
2023-04-26T10:38:36.361Z,49.67
2023-04-26T10:41:30.881Z,50.09
2023-04-26T10:44:01.487Z,48.86
2023-04-26T10:46:40.769Z,48.43
2023-04-26T10:49:16.949Z,48.03
2023-04-26T10:52:11.298Z,49.05
2023-04-26T10:55:06.257Z,48.66
2023-04-26T10:57:51.489Z,47.47
2023-04-26T11:00:34.349Z,45.41
2023-04-26T11:03:08.761Z,45.11
2023-04-26T11:05:52.088Z,43.81
2023-04-26T11:08:21.721Z,46.62
2023-04-26T11:10:58.683Z,44.21
2023-04-26T11:13:26.754Z,45.59
2023-04-26T11:16:02.899Z,44.18
2023-04-26T11:18:31.679Z,43.49
2023-04-26T11:20:59.884Z,44.62
2023-04-26T11:23:30.047Z,43.75
2023-04-26T11:25:59.085Z,42.79
2023-04-26T11:28:26.950Z,43.35
2023-04-26T11:30:57.348Z,43.59
2023-04-26T11:33:25.179Z,45.60
2023-04-26T11:35:54.169Z,44.72
2023-04-26T11:38:23.792Z,44.67
2023-04-26T11:40:56.276Z,46.50
2023-04-26T11:43:24.321Z,46.56
2023-04-26T11:45:52.309Z,46.41
2023-04-26T11:48:22.209Z,48.34
2023-04-26T11:50:50.459Z,47.93
2023-04-26T11:53:18.624Z,47.86
2023-04-26T11:55:46.576Z,48.17
2023-04-26T11:58:15.698Z,49.92
2023-04-26T12:01:00.390Z,48.33
2023-04-26T12:03:35.383Z,47.33
2023-04-26T12:06:03.908Z,48.23
2023-04-26T12:08:33.770Z,48.32
2023-04-26T12:11:02.516Z,49.00
2023-04-26T12:13:30.607Z,48.18
2023-04-26T12:15:58.532Z,49.42
2023-04-26T12:18:33.477Z,47.68
2023-04-26T12:21:02.141Z,46.82
2023-04-26T12:23:39.166Z,46.94
2023-04-26T12:26:07.476Z,48.77
2023-04-26T12:28:35.240Z,48.76
2023-04-26T12:31:04.487Z,46.48
2023-04-26T12:33:33.814Z,46.43
2023-04-26T12:36:07.716Z,45.86
2023-04-26T12:38:36.423Z,46.85
2023-04-26T12:41:04.449Z,48.12
2023-04-26T12:43:32.762Z,46.84
2023-04-26T12:46:01.084Z,43.36
2023-04-26T12:48:28.979Z,43.93
2023-04-26T12:50:58.206Z,43.26
2023-04-26T12:53:26.064Z,44.11
2023-04-26T12:55:53.873Z,43.56
2023-04-26T12:58:22.371Z,44.86
2023-04-26T13:00:51.213Z,44.31
2023-04-26T13:03:19.442Z,45.91
2023-04-26T13:05:47.572Z,44.53
2023-04-26T13:08:16.870Z,45.70
2023-04-26T13:10:44.830Z,45.69
2023-04-26T13:13:12.973Z,45.11
2023-04-26T13:15:41.389Z,45.98
2023-04-26T13:18:09.303Z,46.23
2023-04-26T13:20:38.118Z,46.77
2023-04-26T13:23:06.006Z,46.22
2023-04-26T13:25:35.312Z,47.03
2023-04-26T13:28:03.076Z,48.20
2023-04-26T13:30:31.193Z,46.83
2023-04-26T13:33:00.294Z,46.35
2023-04-26T13:35:28.384Z,47.45
2023-04-26T13:37:56.303Z,48.69
2023-04-26T13:40:24.257Z,48.92
2023-04-26T13:42:53.474Z,48.49
2023-04-26T13:45:21.469Z,48.20
2023-04-26T13:47:49.345Z,48.64
2023-04-26T13:50:17.492Z,48.18
2023-04-26T13:52:45.627Z,48.57
2023-04-26T13:55:14.490Z,49.17
2023-04-26T13:57:42.614Z,49.15
2023-04-26T14:00:14.056Z,48.61
2023-04-26T14:02:42.100Z,48.76
2023-04-26T14:05:10.621Z,48.80
2023-04-26T14:07:38.539Z,48.26
2023-04-26T14:10:07.481Z,48.66
2023-04-26T14:12:35.388Z,49.95
2023-04-26T14:15:05.598Z,49.15
2023-04-26T14:17:34.824Z,49.23
2023-04-26T14:20:02.699Z,49.08
2023-04-26T14:22:30.591Z,50.17
2023-04-26T14:24:58.464Z,51.66
2023-04-26T14:27:26.932Z,48.92
2023-04-26T14:29:54.709Z,48.91
2023-04-26T14:32:22.569Z,46.66
2023-04-26T14:34:51.845Z,45.91
2023-04-26T14:37:22.581Z,46.56
2023-04-26T14:39:50.771Z,47.77
2023-04-26T14:42:18.824Z,48.30
2023-04-26T14:44:47.666Z,46.30
2023-04-26T14:47:15.655Z,46.99
2023-04-26T14:49:43.797Z,46.19
2023-04-26T14:52:13.227Z,47.52
2023-04-26T14:54:41.491Z,47.55
2023-04-26T14:57:09.386Z,47.88
2023-04-26T14:59:37.764Z,46.23
2023-04-26T15:02:06.050Z,45.93
2023-04-26T15:04:34.304Z,45.64
2023-04-26T15:07:02.713Z,46.84
2023-04-26T15:09:32.263Z,48.22
2023-04-26T15:12:00.271Z,48.23
2023-04-26T15:14:28.122Z,47.95
2023-04-26T15:16:56.060Z,49.75
2023-04-26T15:19:24.021Z,50.33
2023-04-26T15:21:52.102Z,49.76
2023-04-26T15:24:20.032Z,50.44
2023-04-26T15:26:49.245Z,46.03
2023-04-26T15:29:17.182Z,44.49
2023-04-26T15:31:45.106Z,44.51
2023-04-26T15:34:13.233Z,46.26
2023-04-26T15:36:41.163Z,45.29
2023-04-26T15:39:09.472Z,44.68
2023-04-26T15:41:37.364Z,46.09
2023-04-26T15:44:06.542Z,47.13
2023-04-26T15:46:36.121Z,44.62
2023-04-26T15:49:05.987Z,43.80
2023-04-26T15:51:33.843Z,41.46
2023-04-26T15:54:01.912Z,42.93
2023-04-26T15:56:29.865Z,41.84
2023-04-26T15:58:58.165Z,42.98
2023-04-26T16:01:27.479Z,43.28
2023-04-26T16:03:55.482Z,43.30
2023-04-26T16:06:23.499Z,41.96
2023-04-26T16:08:51.359Z,41.34
2023-04-26T16:11:19.310Z,42.92
2023-04-26T16:13:51.774Z,42.24
2023-04-26T16:16:20.133Z,41.66
2023-04-26T16:18:49.385Z,41.37
2023-04-26T16:21:17.488Z,42.79
2023-04-26T16:23:45.347Z,41.99
2023-04-26T16:26:13.237Z,42.08
2023-04-26T16:28:41.116Z,42.23
2023-04-26T16:31:09.417Z,42.54
2023-04-26T16:33:37.516Z,42.75
2023-04-26T16:36:07.813Z,43.42
2023-04-26T16:38:35.458Z,43.68
2023-04-26T16:41:03.770Z,43.54
2023-04-26T16:43:32.751Z,43.85
2023-04-26T16:46:02.244Z,44.69
2023-04-26T16:48:32.777Z,44.87
2023-04-26T16:51:00.756Z,45.61
2023-04-26T16:53:30.537Z,45.32
2023-04-26T16:55:59.036Z,45.56
2023-04-26T16:58:27.364Z,45.67
2023-04-26T17:00:55.306Z,46.37
2023-04-26T17:03:23.932Z,45.94
2023-04-26T17:05:52.065Z,45.80
2023-04-26T17:08:20.838Z,45.72
2023-04-26T17:10:51.736Z,46.86
2023-04-26T17:13:20.123Z,46.28
2023-04-26T17:15:48.224Z,46.34
2023-04-26T17:18:16.127Z,46.77
2023-04-26T17:20:44.041Z,46.77
2023-04-26T17:23:11.863Z,46.76
2023-04-26T17:25:39.752Z,46.21
2023-04-26T17:28:09.935Z,46.81
2023-04-26T17:30:38.370Z,48.06
2023-04-26T17:33:07.459Z,47.41
2023-04-26T17:35:35.519Z,47.12
2023-04-26T17:38:03.354Z,46.97
2023-04-26T17:40:31.380Z,47.27
2023-04-26T17:42:59.456Z,48.08
2023-04-26T17:45:29.179Z,48.35
2023-04-26T17:47:57.285Z,48.27
2023-04-26T17:50:25.092Z,48.57
2023-04-26T17:52:53.250Z,48.56
2023-04-26T17:55:21.087Z,49.20
2023-04-26T17:57:48.874Z,49.17
2023-04-26T18:00:17.388Z,49.30
2023-04-26T18:02:46.830Z,49.37
2023-04-26T18:05:15.290Z,49.82
2023-04-26T18:07:43.098Z,49.31
2023-04-26T18:10:11.406Z,49.74
2023-04-26T18:12:39.823Z,50.20
2023-04-26T18:15:10.146Z,50.68
2023-04-26T18:17:37.828Z,50.72
2023-04-26T18:20:08.365Z,50.74
2023-04-26T18:22:36.218Z,51.31
2023-04-26T18:25:04.258Z,51.98
2023-04-26T18:27:32.920Z,51.51
2023-04-26T18:30:01.461Z,53.24
2023-04-26T18:32:29.265Z,55.13
2023-04-26T18:34:57.144Z,55.92
2023-04-26T18:37:26.774Z,57.05
2023-04-26T18:39:54.545Z,56.73
2023-04-26T18:42:22.331Z,57.52
2023-04-26T18:44:50.730Z,58.09
2023-04-26T18:47:18.629Z,59.36
2023-04-26T18:49:46.987Z,58.57
2023-04-26T18:52:14.900Z,59.06
2023-04-26T18:54:44.059Z,59.03
2023-04-26T18:57:11.977Z,61.01
2023-04-26T18:59:39.834Z,61.85
2023-04-26T19:02:08.124Z,62.85
2023-04-26T19:04:36.410Z,63.74
2023-04-26T19:07:04.404Z,63.54
2023-04-26T19:09:42.735Z,63.45
2023-04-26T19:12:16.040Z,63.62
2023-04-26T19:14:43.823Z,64.60
2023-04-26T19:17:11.597Z,64.29
2023-04-26T19:19:39.382Z,65.19
2023-04-26T19:22:07.327Z,63.74
2023-04-26T19:24:35.112Z,64.89
2023-04-26T19:27:02.924Z,64.81
2023-04-26T19:29:32.086Z,65.45
2023-04-26T19:32:00.547Z,66.23
2023-04-26T19:34:28.505Z,66.52
2023-04-26T19:36:56.284Z,66.18
2023-04-26T19:39:24.205Z,67.15
2023-04-26T19:41:52.072Z,67.34
2023-04-26T19:44:20.260Z,67.22
2023-04-26T19:46:49.477Z,66.61
2023-04-26T19:49:17.305Z,68.17
2023-04-26T19:51:45.154Z,68.91
2023-04-26T19:54:12.930Z,70.57
2023-04-26T19:56:40.735Z,70.13
2023-04-26T19:59:09.326Z,69.33
2023-04-26T20:01:37.358Z,69.86
2023-04-26T20:04:06.754Z,70.00
2023-04-26T20:06:34.646Z,71.48
2023-04-26T20:09:02.514Z,71.66
2023-04-26T20:11:30.383Z,71.71
2023-04-26T20:13:58.365Z,71.13
2023-04-26T20:16:26.285Z,71.12
2023-04-26T20:18:54.156Z,71.45
2023-04-26T20:21:23.440Z,72.18
2023-04-26T20:23:51.320Z,72.73
2023-04-26T20:26:19.083Z,74.17
2023-04-26T20:28:47.573Z,74.76
2023-04-26T20:31:15.423Z,74.88
2023-04-26T20:33:43.305Z,76.53
2023-04-26T20:36:11.438Z,77.45
2023-04-26T20:38:40.697Z,78.33
2023-04-26T20:41:08.506Z,78.68
2023-04-26T20:43:36.366Z,78.99
2023-04-26T20:46:04.507Z,79.21
2023-04-26T20:48:32.374Z,79.70
2023-04-26T20:51:01.932Z,79.98
2023-04-26T20:53:29.933Z,79.69
2023-04-26T20:55:59.109Z,78.77
2023-04-26T20:58:26.956Z,79.30
2023-04-26T21:00:55.730Z,81.59
2023-04-26T21:03:23.724Z,81.43
2023-04-26T21:05:51.789Z,82.03
2023-04-26T21:08:19.588Z,82.86
2023-04-26T21:10:47.508Z,81.26
2023-04-26T21:13:16.916Z,78.10
2023-04-26T21:15:44.695Z,78.26
2023-04-26T21:18:12.561Z,78.53
2023-04-26T21:20:40.416Z,79.32
2023-04-26T21:23:08.203Z,80.75
2023-04-26T21:25:36.018Z,80.43
2023-04-26T21:28:03.871Z,80.52
2023-04-26T21:30:33.117Z,81.32
2023-04-26T21:33:01.072Z,79.83
2023-04-26T21:35:29.146Z,79.51
2023-04-26T21:37:57.100Z,79.19
2023-04-26T21:40:25.202Z,78.77
2023-04-26T21:43:04.469Z,79.86
2023-04-26T21:45:35.526Z,79.81
2023-04-26T21:48:04.450Z,79.68
2023-04-26T21:50:32.343Z,79.93
2023-04-26T21:53:00.340Z,80.43
2023-04-26T21:55:28.399Z,80.04
2023-04-26T21:57:56.212Z,80.63
2023-04-26T22:00:24.265Z,80.34
2023-04-26T22:02:53.703Z,79.58
2023-04-26T22:05:22.267Z,79.62
2023-04-26T22:07:50.764Z,80.81
2023-04-26T22:10:18.655Z,81.53
2023-04-26T22:12:47.254Z,80.70
2023-04-26T22:15:15.203Z,80.86
2023-04-26T22:17:43.308Z,81.49
2023-04-26T22:20:14.194Z,80.78
2023-04-26T22:22:41.977Z,80.82
2023-04-26T22:25:10.628Z,79.77
2023-04-26T22:27:38.350Z,80.87
2023-04-26T22:30:22.947Z,82.29
2023-04-26T22:32:54.840Z,83.58
2023-04-26T22:35:24.923Z,84.48
2023-04-26T22:37:53.129Z,83.40
2023-04-26T22:40:21.444Z,83.39
2023-04-26T22:42:49.193Z,83.42
2023-04-26T22:45:17.031Z,83.00
2023-04-26T22:47:44.895Z,83.18
2023-04-26T22:50:13.458Z,83.71
2023-04-26T22:52:42.813Z,84.83
2023-04-26T22:55:11.163Z,85.97
2023-04-26T22:57:39.005Z,86.45
2023-04-26T23:00:09.858Z,85.59
2023-04-26T23:02:37.782Z,85.85
2023-04-26T23:05:09.514Z,86.36
2023-04-26T23:07:37.686Z,86.68
2023-04-26T23:10:08.009Z,86.56
2023-04-26T23:12:35.977Z,85.94
2023-04-26T23:15:05.037Z,86.06
2023-04-26T23:17:34.077Z,85.59
2023-04-26T23:20:02.175Z,86.77
2023-04-26T23:22:29.952Z,87.00
2023-04-26T23:24:57.769Z,87.27
2023-04-26T23:27:26.949Z,87.55
2023-04-26T23:29:54.682Z,87.16
2023-04-26T23:32:22.495Z,87.77
2023-04-26T23:34:50.252Z,87.46
2023-04-26T23:37:18.192Z,87.19
2023-04-26T23:39:46.029Z,87.60
2023-04-26T23:42:13.929Z,87.54
2023-04-26T23:44:43.128Z,87.80
2023-04-26T23:47:10.941Z,87.21
2023-04-26T23:49:38.673Z,87.29
2023-04-26T23:52:06.406Z,87.23
2023-04-26T23:54:34.409Z,87.22
2023-04-26T23:57:03.965Z,87.70
2023-04-26T23:59:31.977Z,88.19
